sensor_id;sensor_type;location;lat;lon;timestamp;temperature;humidity
6252;DHT22;3159;52.414;9.784;2023-04-08T00:01:52;8.70;99.90
6252;DHT22;3159;52.414;9.784;2023-04-08T00:04:19;8.60;99.90
6252;DHT22;3159;52.414;9.784;2023-04-08T00:06:46;8.60;99.90
6252;DHT22;3159;52.414;9.784;2023-04-08T00:09:14;8.60;99.90
6252;DHT22;3159;52.414;9.784;2023-04-08T00:11:41;8.50;99.90
6252;DHT22;3159;52.414;9.784;2023-04-08T00:14:08;8.60;99.90
6252;DHT22;3159;52.414;9.784;2023-04-08T00:16:35;8.50;99.90
6252;DHT22;3159;52.414;9.784;2023-04-08T00:19:01;8.50;99.90
6252;DHT22;3159;52.414;9.784;2023-04-08T00:21:28;8.50;99.90
6252;DHT22;3159;52.414;9.784;2023-04-08T00:23:56;8.40;99.90
6252;DHT22;3159;52.414;9.784;2023-04-08T00:26:24;8.50;99.90
6252;DHT22;3159;52.414;9.784;2023-04-08T00:28:51;8.40;99.90
6252;DHT22;3159;52.414;9.784;2023-04-08T00:31:17;8.50;99.90
6252;DHT22;3159;52.414;9.784;2023-04-08T00:33:44;8.50;99.90
6252;DHT22;3159;52.414;9.784;2023-04-08T00:36:11;8.50;99.90
6252;DHT22;3159;52.414;9.784;2023-04-08T00:38:38;8.40;99.90
6252;DHT22;3159;52.414;9.784;2023-04-08T00:41:05;8.40;99.90
6252;DHT22;3159;52.414;9.784;2023-04-08T00:43:33;8.50;99.90
6252;DHT22;3159;52.414;9.784;2023-04-08T00:45:59;8.40;99.90
6252;DHT22;3159;52.414;9.784;2023-04-08T00:48:26;8.40;99.90
6252;DHT22;3159;52.414;9.784;2023-04-08T00:50:53;8.40;99.90
6252;DHT22;3159;52.414;9.784;2023-04-08T00:53:20;8.40;99.90
6252;DHT22;3159;52.414;9.784;2023-04-08T00:55:47;8.50;99.90
6252;DHT22;3159;52.414;9.784;2023-04-08T00:58:14;8.50;99.90
6252;DHT22;3159;52.414;9.784;2023-04-08T01:00:52;8.70;99.90
6252;DHT22;3159;52.414;9.784;2023-04-08T01:03:28;8.60;99.90
6252;DHT22;3159;52.414;9.784;2023-04-08T01:06:06;8.60;99.90
6252;DHT22;3159;52.414;9.784;2023-04-08T01:08:37;8.40;99.90
6252;DHT22;3159;52.414;9.784;2023-04-08T01:11:09;8.40;99.90
6252;DHT22;3159;52.414;9.784;2023-04-08T01:13:39;8.40;99.90
6252;DHT22;3159;52.414;9.784;2023-04-08T01:16:09;8.50;99.90
6252;DHT22;3159;52.414;9.784;2023-04-08T01:18:39;8.40;99.90
6252;DHT22;3159;52.414;9.784;2023-04-08T01:21:07;8.40;99.90
6252;DHT22;3159;52.414;9.784;2023-04-08T01:23:40;8.40;99.90
6252;DHT22;3159;52.414;9.784;2023-04-08T01:26:11;8.30;99.90
6252;DHT22;3159;52.414;9.784;2023-04-08T01:28:39;8.50;99.90
6252;DHT22;3159;52.414;9.784;2023-04-08T01:31:08;8.50;99.90
6252;DHT22;3159;52.414;9.784;2023-04-08T01:33:36;8.50;99.90
6252;DHT22;3159;52.414;9.784;2023-04-08T01:36:03;8.50;99.90
6252;DHT22;3159;52.414;9.784;2023-04-08T01:38:32;8.50;99.90
6252;DHT22;3159;52.414;9.784;2023-04-08T01:41:00;8.50;99.90
6252;DHT22;3159;52.414;9.784;2023-04-08T01:43:29;8.60;99.90
6252;DHT22;3159;52.414;9.784;2023-04-08T01:45:59;8.50;99.90
6252;DHT22;3159;52.414;9.784;2023-04-08T01:48:27;8.50;99.90
6252;DHT22;3159;52.414;9.784;2023-04-08T01:50:54;8.40;99.90
6252;DHT22;3159;52.414;9.784;2023-04-08T01:53:22;8.30;99.90
6252;DHT22;3159;52.414;9.784;2023-04-08T01:55:54;8.30;99.90
6252;DHT22;3159;52.414;9.784;2023-04-08T01:58:24;8.30;99.90
6252;DHT22;3159;52.414;9.784;2023-04-08T02:00:57;8.20;99.90
6252;DHT22;3159;52.414;9.784;2023-04-08T02:03:24;8.10;99.90
6252;DHT22;3159;52.414;9.784;2023-04-08T02:05:54;8.10;99.90
6252;DHT22;3159;52.414;9.784;2023-04-08T02:08:21;8.30;99.90
6252;DHT22;3159;52.414;9.784;2023-04-08T02:10:47;8.40;99.90
6252;DHT22;3159;52.414;9.784;2023-04-08T02:13:14;8.30;99.90
6252;DHT22;3159;52.414;9.784;2023-04-08T02:15:43;8.40;99.90
6252;DHT22;3159;52.414;9.784;2023-04-08T02:18:16;8.40;99.90
6252;DHT22;3159;52.414;9.784;2023-04-08T02:20:49;8.30;99.90
6252;DHT22;3159;52.414;9.784;2023-04-08T02:23:20;8.30;99.90
6252;DHT22;3159;52.414;9.784;2023-04-08T02:25:48;8.20;99.90
6252;DHT22;3159;52.414;9.784;2023-04-08T02:28:17;8.30;99.90
6252;DHT22;3159;52.414;9.784;2023-04-08T02:30:48;8.20;99.90
6252;DHT22;3159;52.414;9.784;2023-04-08T02:33:17;8.40;99.90
6252;DHT22;3159;52.414;9.784;2023-04-08T02:35:46;8.20;99.90
6252;DHT22;3159;52.414;9.784;2023-04-08T02:38:13;8.30;99.90
6252;DHT22;3159;52.414;9.784;2023-04-08T02:40:40;8.20;99.90
6252;DHT22;3159;52.414;9.784;2023-04-08T02:43:07;8.20;99.90
6252;DHT22;3159;52.414;9.784;2023-04-08T02:45:38;8.30;99.90
6252;DHT22;3159;52.414;9.784;2023-04-08T02:48:06;8.30;99.90
6252;DHT22;3159;52.414;9.784;2023-04-08T02:50:34;8.20;99.90
6252;DHT22;3159;52.414;9.784;2023-04-08T02:53:01;8.40;99.90
6252;DHT22;3159;52.414;9.784;2023-04-08T02:55:28;8.20;99.90
6252;DHT22;3159;52.414;9.784;2023-04-08T02:57:55;8.30;99.90
6252;DHT22;3159;52.414;9.784;2023-04-08T03:00:22;8.30;99.90
6252;DHT22;3159;52.414;9.784;2023-04-08T03:02:48;8.30;99.90
6252;DHT22;3159;52.414;9.784;2023-04-08T03:05:15;8.20;99.90
6252;DHT22;3159;52.414;9.784;2023-04-08T03:07:43;8.20;99.90
6252;DHT22;3159;52.414;9.784;2023-04-08T03:10:10;8.40;99.90
6252;DHT22;3159;52.414;9.784;2023-04-08T03:12:37;8.20;99.90
6252;DHT22;3159;52.414;9.784;2023-04-08T03:15:04;8.30;99.90
6252;DHT22;3159;52.414;9.784;2023-04-08T03:17:31;8.40;99.90
6252;DHT22;3159;52.414;9.784;2023-04-08T03:19:59;8.40;99.90
6252;DHT22;3159;52.414;9.784;2023-04-08T03:22:26;8.40;99.90
6252;DHT22;3159;52.414;9.784;2023-04-08T03:24:54;8.40;99.90
6252;DHT22;3159;52.414;9.784;2023-04-08T03:27:21;8.40;99.90
6252;DHT22;3159;52.414;9.784;2023-04-08T03:29:47;8.30;99.90
6252;DHT22;3159;52.414;9.784;2023-04-08T03:32:14;8.20;99.90
6252;DHT22;3159;52.414;9.784;2023-04-08T03:34:41;8.20;99.90
6252;DHT22;3159;52.414;9.784;2023-04-08T03:37:08;8.30;99.90
6252;DHT22;3159;52.414;9.784;2023-04-08T03:39:35;8.20;99.90
6252;DHT22;3159;52.414;9.784;2023-04-08T03:42:03;8.30;99.90
6252;DHT22;3159;52.414;9.784;2023-04-08T03:44:30;8.20;99.90
6252;DHT22;3159;52.414;9.784;2023-04-08T03:46:57;8.30;99.90
6252;DHT22;3159;52.414;9.784;2023-04-08T03:49:24;8.40;99.90
6252;DHT22;3159;52.414;9.784;2023-04-08T03:51:50;8.30;99.90
6252;DHT22;3159;52.414;9.784;2023-04-08T03:54:17;8.40;99.90
6252;DHT22;3159;52.414;9.784;2023-04-08T03:56:44;8.30;99.90
6252;DHT22;3159;52.414;9.784;2023-04-08T03:59:12;8.30;99.90
6252;DHT22;3159;52.414;9.784;2023-04-08T04:01:39;8.40;99.90
6252;DHT22;3159;52.414;9.784;2023-04-08T04:04:06;8.40;99.90
6252;DHT22;3159;52.414;9.784;2023-04-08T04:06:32;8.30;99.90
6252;DHT22;3159;52.414;9.784;2023-04-08T04:08:59;8.40;99.90
6252;DHT22;3159;52.414;9.784;2023-04-08T04:11:26;8.40;99.90
6252;DHT22;3159;52.414;9.784;2023-04-08T04:13:53;8.40;99.90
6252;DHT22;3159;52.414;9.784;2023-04-08T04:16:21;8.30;99.90
6252;DHT22;3159;52.414;9.784;2023-04-08T04:18:48;8.40;99.90
6252;DHT22;3159;52.414;9.784;2023-04-08T04:21:15;8.30;99.90
6252;DHT22;3159;52.414;9.784;2023-04-08T04:23:41;8.30;99.90
6252;DHT22;3159;52.414;9.784;2023-04-08T04:26:08;8.20;99.90
6252;DHT22;3159;52.414;9.784;2023-04-08T04:28:35;8.20;99.90
6252;DHT22;3159;52.414;9.784;2023-04-08T04:31:02;8.30;99.90
6252;DHT22;3159;52.414;9.784;2023-04-08T04:33:31;8.20;99.90
6252;DHT22;3159;52.414;9.784;2023-04-08T04:35:57;8.20;99.90
6252;DHT22;3159;52.414;9.784;2023-04-08T04:38:24;8.30;99.90
6252;DHT22;3159;52.414;9.784;2023-04-08T04:40:51;8.20;99.90
6252;DHT22;3159;52.414;9.784;2023-04-08T04:43:18;8.20;99.90
6252;DHT22;3159;52.414;9.784;2023-04-08T04:45:45;8.20;99.90
6252;DHT22;3159;52.414;9.784;2023-04-08T04:48:12;8.00;99.90
6252;DHT22;3159;52.414;9.784;2023-04-08T04:50:40;8.00;99.90
6252;DHT22;3159;52.414;9.784;2023-04-08T04:53:06;8.10;99.90
6252;DHT22;3159;52.414;9.784;2023-04-08T04:55:33;8.00;99.90
6252;DHT22;3159;52.414;9.784;2023-04-08T04:58:00;8.10;99.90
6252;DHT22;3159;52.414;9.784;2023-04-08T05:00:27;8.00;99.90
6252;DHT22;3159;52.414;9.784;2023-04-08T05:02:54;8.00;99.90
6252;DHT22;3159;52.414;9.784;2023-04-08T05:05:21;8.00;99.90
6252;DHT22;3159;52.414;9.784;2023-04-08T05:07:49;8.00;99.90
6252;DHT22;3159;52.414;9.784;2023-04-08T05:10:16;8.00;99.90
6252;DHT22;3159;52.414;9.784;2023-04-08T05:12:43;7.90;99.90
6252;DHT22;3159;52.414;9.784;2023-04-08T05:15:10;7.90;99.90
6252;DHT22;3159;52.414;9.784;2023-04-08T05:17:37;7.90;99.90
6252;DHT22;3159;52.414;9.784;2023-04-08T05:20:04;7.80;99.90
6252;DHT22;3159;52.414;9.784;2023-04-08T05:22:31;7.80;99.90
6252;DHT22;3159;52.414;9.784;2023-04-08T05:25:00;7.80;99.90
6252;DHT22;3159;52.414;9.784;2023-04-08T05:27:27;7.80;99.90
6252;DHT22;3159;52.414;9.784;2023-04-08T05:29:53;7.90;99.90
6252;DHT22;3159;52.414;9.784;2023-04-08T05:32:20;7.90;99.90
6252;DHT22;3159;52.414;9.784;2023-04-08T05:34:47;8.00;99.90
6252;DHT22;3159;52.414;9.784;2023-04-08T05:37:14;7.90;99.90
6252;DHT22;3159;52.414;9.784;2023-04-08T05:39:41;7.90;99.90
6252;DHT22;3159;52.414;9.784;2023-04-08T05:42:09;7.90;99.90
6252;DHT22;3159;52.414;9.784;2023-04-08T05:44:37;8.00;99.90
6252;DHT22;3159;52.414;9.784;2023-04-08T05:47:05;8.10;99.90
6252;DHT22;3159;52.414;9.784;2023-04-08T05:49:32;8.10;99.90
6252;DHT22;3159;52.414;9.784;2023-04-08T05:51:59;8.00;99.90
6252;DHT22;3159;52.414;9.784;2023-04-08T05:54:26;7.90;99.90
6252;DHT22;3159;52.414;9.784;2023-04-08T05:56:53;8.00;99.90
6252;DHT22;3159;52.414;9.784;2023-04-08T05:59:21;8.00;99.90
6252;DHT22;3159;52.414;9.784;2023-04-08T06:01:48;8.10;99.90
6252;DHT22;3159;52.414;9.784;2023-04-08T06:04:15;8.00;99.90
6252;DHT22;3159;52.414;9.784;2023-04-08T06:06:42;8.10;99.90
6252;DHT22;3159;52.414;9.784;2023-04-08T06:09:08;8.00;99.90
6252;DHT22;3159;52.414;9.784;2023-04-08T06:11:35;8.10;99.90
6252;DHT22;3159;52.414;9.784;2023-04-08T06:14:02;8.10;99.90
6252;DHT22;3159;52.414;9.784;2023-04-08T06:16:30;8.10;99.90
6252;DHT22;3159;52.414;9.784;2023-04-08T06:18:57;8.20;99.90
6252;DHT22;3159;52.414;9.784;2023-04-08T06:21:24;8.20;99.90
6252;DHT22;3159;52.414;9.784;2023-04-08T06:23:51;8.10;99.90
6252;DHT22;3159;52.414;9.784;2023-04-08T06:26:17;8.00;99.90
6252;DHT22;3159;52.414;9.784;2023-04-08T06:28:44;8.00;99.90
6252;DHT22;3159;52.414;9.784;2023-04-08T06:31:11;8.00;99.90
6252;DHT22;3159;52.414;9.784;2023-04-08T06:33:39;8.10;99.90
6252;DHT22;3159;52.414;9.784;2023-04-08T06:36:07;8.20;99.90
6252;DHT22;3159;52.414;9.784;2023-04-08T06:38:34;8.30;99.90
6252;DHT22;3159;52.414;9.784;2023-04-08T06:41:01;8.30;99.90
6252;DHT22;3159;52.414;9.784;2023-04-08T06:43:29;8.40;99.90
6252;DHT22;3159;52.414;9.784;2023-04-08T06:45:56;8.20;99.90
6252;DHT22;3159;52.414;9.784;2023-04-08T06:48:23;8.20;99.90
6252;DHT22;3159;52.414;9.784;2023-04-08T06:50:54;8.20;99.90
6252;DHT22;3159;52.414;9.784;2023-04-08T06:53:21;8.10;99.90
6252;DHT22;3159;52.414;9.784;2023-04-08T06:55:48;8.00;99.90
6252;DHT22;3159;52.414;9.784;2023-04-08T06:58:16;8.00;99.90
6252;DHT22;3159;52.414;9.784;2023-04-08T07:00:42;8.00;99.90
6252;DHT22;3159;52.414;9.784;2023-04-08T07:03:09;8.00;99.90
6252;DHT22;3159;52.414;9.784;2023-04-08T07:05:37;8.10;99.90
6252;DHT22;3159;52.414;9.784;2023-04-08T07:08:05;8.10;99.90
6252;DHT22;3159;52.414;9.784;2023-04-08T07:10:33;8.10;99.90
6252;DHT22;3159;52.414;9.784;2023-04-08T07:12:59;8.00;99.90
6252;DHT22;3159;52.414;9.784;2023-04-08T07:15:26;8.00;99.90
6252;DHT22;3159;52.414;9.784;2023-04-08T07:17:53;8.00;99.90
6252;DHT22;3159;52.414;9.784;2023-04-08T07:20:21;8.00;99.90
6252;DHT22;3159;52.414;9.784;2023-04-08T07:22:48;8.10;99.90
6252;DHT22;3159;52.414;9.784;2023-04-08T07:25:16;8.00;99.90
6252;DHT22;3159;52.414;9.784;2023-04-08T07:27:43;8.20;99.90
6252;DHT22;3159;52.414;9.784;2023-04-08T07:30:11;8.20;99.90
6252;DHT22;3159;52.414;9.784;2023-04-08T07:32:37;8.20;99.90
6252;DHT22;3159;52.414;9.784;2023-04-08T07:35:05;8.40;99.90
6252;DHT22;3159;52.414;9.784;2023-04-08T07:37:32;8.30;99.90
6252;DHT22;3159;52.414;9.784;2023-04-08T07:39:58;8.20;99.90
6252;DHT22;3159;52.414;9.784;2023-04-08T07:42:27;8.40;99.90
6252;DHT22;3159;52.414;9.784;2023-04-08T07:44:53;8.30;99.90
6252;DHT22;3159;52.414;9.784;2023-04-08T07:47:20;8.40;99.90
6252;DHT22;3159;52.414;9.784;2023-04-08T07:49:47;8.40;99.90
6252;DHT22;3159;52.414;9.784;2023-04-08T07:52:14;8.30;99.90
6252;DHT22;3159;52.414;9.784;2023-04-08T07:54:41;8.30;99.90
6252;DHT22;3159;52.414;9.784;2023-04-08T07:57:08;8.40;99.90
6252;DHT22;3159;52.414;9.784;2023-04-08T07:59:36;8.50;99.90
6252;DHT22;3159;52.414;9.784;2023-04-08T08:02:02;8.50;99.90
6252;DHT22;3159;52.414;9.784;2023-04-08T08:04:29;8.50;99.90
6252;DHT22;3159;52.414;9.784;2023-04-08T08:06:57;8.50;99.90
6252;DHT22;3159;52.414;9.784;2023-04-08T08:09:23;8.70;99.90
6252;DHT22;3159;52.414;9.784;2023-04-08T08:11:50;8.70;99.90
6252;DHT22;3159;52.414;9.784;2023-04-08T08:14:17;8.60;99.90
6252;DHT22;3159;52.414;9.784;2023-04-08T08:16:45;8.70;99.90
6252;DHT22;3159;52.414;9.784;2023-04-08T08:19:12;8.60;99.90
6252;DHT22;3159;52.414;9.784;2023-04-08T08:21:39;8.70;99.90
6252;DHT22;3159;52.414;9.784;2023-04-08T08:24:06;8.80;99.90
6252;DHT22;3159;52.414;9.784;2023-04-08T08:26:34;8.90;99.90
6252;DHT22;3159;52.414;9.784;2023-04-08T08:29:02;8.80;99.90
6252;DHT22;3159;52.414;9.784;2023-04-08T08:31:29;8.80;99.90
6252;DHT22;3159;52.414;9.784;2023-04-08T08:33:57;8.90;99.90
6252;DHT22;3159;52.414;9.784;2023-04-08T08:36:24;8.80;99.90
6252;DHT22;3159;52.414;9.784;2023-04-08T08:38:51;8.80;99.90
6252;DHT22;3159;52.414;9.784;2023-04-08T08:41:18;8.80;99.90
6252;DHT22;3159;52.414;9.784;2023-04-08T08:43:45;8.70;99.90
6252;DHT22;3159;52.414;9.784;2023-04-08T08:46:15;8.80;99.90
6252;DHT22;3159;52.414;9.784;2023-04-08T08:48:42;8.70;99.90
6252;DHT22;3159;52.414;9.784;2023-04-08T08:51:11;8.80;99.90
6252;DHT22;3159;52.414;9.784;2023-04-08T08:53:38;8.90;99.90
6252;DHT22;3159;52.414;9.784;2023-04-08T08:56:09;8.80;99.90
6252;DHT22;3159;52.414;9.784;2023-04-08T08:58:37;8.90;99.90
6252;DHT22;3159;52.414;9.784;2023-04-08T09:01:28;8.90;99.90
6252;DHT22;3159;52.414;9.784;2023-04-08T09:04:06;9.00;99.90
6252;DHT22;3159;52.414;9.784;2023-04-08T09:06:35;8.90;99.90
6252;DHT22;3159;52.414;9.784;2023-04-08T09:09:02;9.10;99.90
6252;DHT22;3159;52.414;9.784;2023-04-08T09:11:30;9.00;99.90
6252;DHT22;3159;52.414;9.784;2023-04-08T09:13:57;8.90;99.90
6252;DHT22;3159;52.414;9.784;2023-04-08T09:16:24;8.90;99.90
6252;DHT22;3159;52.414;9.784;2023-04-08T09:18:52;8.90;99.90
6252;DHT22;3159;52.414;9.784;2023-04-08T09:21:22;8.90;99.90
6252;DHT22;3159;52.414;9.784;2023-04-08T09:23:51;8.80;99.90
6252;DHT22;3159;52.414;9.784;2023-04-08T09:26:19;8.90;99.90
6252;DHT22;3159;52.414;9.784;2023-04-08T09:28:57;8.90;99.90
6252;DHT22;3159;52.414;9.784;2023-04-08T09:31:25;8.70;99.90
6252;DHT22;3159;52.414;9.784;2023-04-08T09:33:53;8.70;99.90
6252;DHT22;3159;52.414;9.784;2023-04-08T09:36:20;8.80;99.90
6252;DHT22;3159;52.414;9.784;2023-04-08T09:38:47;8.90;99.90
6252;DHT22;3159;52.414;9.784;2023-04-08T09:41:16;8.90;99.90
6252;DHT22;3159;52.414;9.784;2023-04-08T09:43:47;9.00;99.90
6252;DHT22;3159;52.414;9.784;2023-04-08T09:46:16;9.00;99.90
6252;DHT22;3159;52.414;9.784;2023-04-08T09:48:54;9.10;99.90
6252;DHT22;3159;52.414;9.784;2023-04-08T09:51:23;9.20;99.90
6252;DHT22;3159;52.414;9.784;2023-04-08T09:53:55;9.20;99.90
6252;DHT22;3159;52.414;9.784;2023-04-08T09:56:26;9.30;99.90
6252;DHT22;3159;52.414;9.784;2023-04-08T09:58:58;9.30;99.90
6252;DHT22;3159;52.414;9.784;2023-04-08T10:01:37;9.30;99.90
6252;DHT22;3159;52.414;9.784;2023-04-08T10:04:09;9.40;99.90
6252;DHT22;3159;52.414;9.784;2023-04-08T10:06:37;9.30;99.90
6252;DHT22;3159;52.414;9.784;2023-04-08T10:09:06;9.40;99.90
6252;DHT22;3159;52.414;9.784;2023-04-08T10:11:36;9.30;99.90
6252;DHT22;3159;52.414;9.784;2023-04-08T10:14:03;9.30;99.90
6252;DHT22;3159;52.414;9.784;2023-04-08T10:16:29;9.40;99.90
6252;DHT22;3159;52.414;9.784;2023-04-08T10:18:56;9.20;99.90
6252;DHT22;3159;52.414;9.784;2023-04-08T10:21:37;9.30;99.90
6252;DHT22;3159;52.414;9.784;2023-04-08T10:24:08;9.30;99.90
6252;DHT22;3159;52.414;9.784;2023-04-08T10:26:38;9.30;99.90
6252;DHT22;3159;52.414;9.784;2023-04-08T10:29:32;9.30;99.90
6252;DHT22;3159;52.414;9.784;2023-04-08T10:31:59;9.40;99.90
6252;DHT22;3159;52.414;9.784;2023-04-08T10:34:27;9.20;99.90
6252;DHT22;3159;52.414;9.784;2023-04-08T10:36:55;9.30;99.90
6252;DHT22;3159;52.414;9.784;2023-04-08T10:39:26;9.30;99.90
6252;DHT22;3159;52.414;9.784;2023-04-08T10:41:55;9.30;99.90
6252;DHT22;3159;52.414;9.784;2023-04-08T10:44:23;9.30;99.90
6252;DHT22;3159;52.414;9.784;2023-04-08T10:46:51;9.50;99.90
6252;DHT22;3159;52.414;9.784;2023-04-08T10:49:18;9.60;99.90
6252;DHT22;3159;52.414;9.784;2023-04-08T10:51:47;9.40;99.90
6252;DHT22;3159;52.414;9.784;2023-04-08T10:54:15;9.40;99.90
6252;DHT22;3159;52.414;9.784;2023-04-08T10:56:44;9.40;99.90
6252;DHT22;3159;52.414;9.784;2023-04-08T10:59:14;9.30;99.90
6252;DHT22;3159;52.414;9.784;2023-04-08T11:01:45;9.40;99.90
6252;DHT22;3159;52.414;9.784;2023-04-08T11:04:16;9.30;99.90
6252;DHT22;3159;52.414;9.784;2023-04-08T11:06:45;9.30;99.90
6252;DHT22;3159;52.414;9.784;2023-04-08T11:09:13;9.50;99.90
6252;DHT22;3159;52.414;9.784;2023-04-08T11:11:41;9.50;99.90
6252;DHT22;3159;52.414;9.784;2023-04-08T11:14:09;9.40;99.90
6252;DHT22;3159;52.414;9.784;2023-04-08T11:16:38;9.40;99.90
6252;DHT22;3159;52.414;9.784;2023-04-08T11:19:05;9.50;99.90
6252;DHT22;3159;52.414;9.784;2023-04-08T11:21:34;9.60;99.90
6252;DHT22;3159;52.414;9.784;2023-04-08T11:24:06;9.50;99.90
6252;DHT22;3159;52.414;9.784;2023-04-08T11:26:34;9.40;99.90
6252;DHT22;3159;52.414;9.784;2023-04-08T11:29:02;9.40;99.90
6252;DHT22;3159;52.414;9.784;2023-04-08T11:31:31;9.40;99.90
6252;DHT22;3159;52.414;9.784;2023-04-08T11:34:00;9.50;99.90
6252;DHT22;3159;52.414;9.784;2023-04-08T11:36:28;9.50;99.90
6252;DHT22;3159;52.414;9.784;2023-04-08T11:38:55;9.50;99.90
6252;DHT22;3159;52.414;9.784;2023-04-08T11:41:21;9.70;99.90
6252;DHT22;3159;52.414;9.784;2023-04-08T11:43:55;9.60;99.90
6252;DHT22;3159;52.414;9.784;2023-04-08T11:46:23;9.60;99.90
6252;DHT22;3159;52.414;9.784;2023-04-08T11:48:57;9.50;99.90
6252;DHT22;3159;52.414;9.784;2023-04-08T11:51:25;9.40;99.90
6252;DHT22;3159;52.414;9.784;2023-04-08T11:53:53;9.40;99.90
6252;DHT22;3159;52.414;9.784;2023-04-08T11:56:21;9.50;99.90
6252;DHT22;3159;52.414;9.784;2023-04-08T11:58:49;9.40;99.90
6252;DHT22;3159;52.414;9.784;2023-04-08T12:01:16;9.40;99.90
6252;DHT22;3159;52.414;9.784;2023-04-08T12:03:59;9.30;99.90
6252;DHT22;3159;52.414;9.784;2023-04-08T12:06:28;9.20;99.90
6252;DHT22;3159;52.414;9.784;2023-04-08T12:08:56;9.30;99.90
6252;DHT22;3159;52.414;9.784;2023-04-08T12:11:23;9.40;99.90
6252;DHT22;3159;52.414;9.784;2023-04-08T12:13:50;9.50;99.90
6252;DHT22;3159;52.414;9.784;2023-04-08T12:16:18;9.50;99.90
6252;DHT22;3159;52.414;9.784;2023-04-08T12:18:45;9.60;99.90
6252;DHT22;3159;52.414;9.784;2023-04-08T12:21:13;9.60;99.90
6252;DHT22;3159;52.414;9.784;2023-04-08T12:23:41;9.70;99.90
6252;DHT22;3159;52.414;9.784;2023-04-08T12:26:08;9.70;99.90
6252;DHT22;3159;52.414;9.784;2023-04-08T12:28:36;9.70;99.90
6252;DHT22;3159;52.414;9.784;2023-04-08T12:31:02;9.60;99.90
6252;DHT22;3159;52.414;9.784;2023-04-08T12:33:29;9.30;99.90
6252;DHT22;3159;52.414;9.784;2023-04-08T12:35:57;9.50;99.90
6252;DHT22;3159;52.414;9.784;2023-04-08T12:38:24;9.60;99.90
6252;DHT22;3159;52.414;9.784;2023-04-08T12:40:53;9.70;99.90
6252;DHT22;3159;52.414;9.784;2023-04-08T12:43:21;9.70;99.90
6252;DHT22;3159;52.414;9.784;2023-04-08T12:45:48;9.60;99.90
6252;DHT22;3159;52.414;9.784;2023-04-08T12:48:15;9.60;99.90
6252;DHT22;3159;52.414;9.784;2023-04-08T12:50:42;9.60;99.90
6252;DHT22;3159;52.414;9.784;2023-04-08T12:53:09;9.50;99.90
6252;DHT22;3159;52.414;9.784;2023-04-08T12:55:36;9.60;99.90
6252;DHT22;3159;52.414;9.784;2023-04-08T12:58:04;9.60;99.90
6252;DHT22;3159;52.414;9.784;2023-04-08T13:00:31;9.60;99.90
6252;DHT22;3159;52.414;9.784;2023-04-08T13:02:58;9.60;99.90
6252;DHT22;3159;52.414;9.784;2023-04-08T13:05:24;9.60;99.90
6252;DHT22;3159;52.414;9.784;2023-04-08T13:07:51;9.70;99.90
6252;DHT22;3159;52.414;9.784;2023-04-08T13:10:18;9.70;99.90
6252;DHT22;3159;52.414;9.784;2023-04-08T13:12:45;9.80;99.90
6252;DHT22;3159;52.414;9.784;2023-04-08T13:15:13;9.70;99.90
6252;DHT22;3159;52.414;9.784;2023-04-08T13:17:40;9.80;99.90
6252;DHT22;3159;52.414;9.784;2023-04-08T13:20:08;9.90;99.90
6252;DHT22;3159;52.414;9.784;2023-04-08T13:22:36;9.90;99.90
6252;DHT22;3159;52.414;9.784;2023-04-08T13:25:03;9.80;99.90
6252;DHT22;3159;52.414;9.784;2023-04-08T13:27:32;9.90;99.90
6252;DHT22;3159;52.414;9.784;2023-04-08T13:29:59;10.00;99.90
6252;DHT22;3159;52.414;9.784;2023-04-08T13:32:27;10.00;99.90
6252;DHT22;3159;52.414;9.784;2023-04-08T13:34:54;10.00;99.90
6252;DHT22;3159;52.414;9.784;2023-04-08T13:37:20;10.10;99.90
6252;DHT22;3159;52.414;9.784;2023-04-08T13:39:47;10.30;99.90
6252;DHT22;3159;52.414;9.784;2023-04-08T13:42:14;10.10;99.90
6252;DHT22;3159;52.414;9.784;2023-04-08T13:44:41;10.10;99.90
6252;DHT22;3159;52.414;9.784;2023-04-08T13:47:08;10.10;99.90
6252;DHT22;3159;52.414;9.784;2023-04-08T13:49:36;10.10;99.90
6252;DHT22;3159;52.414;9.784;2023-04-08T13:52:03;10.20;99.90
6252;DHT22;3159;52.414;9.784;2023-04-08T13:54:29;10.30;99.90
6252;DHT22;3159;52.414;9.784;2023-04-08T13:56:56;10.30;99.90
6252;DHT22;3159;52.414;9.784;2023-04-08T13:59:23;10.30;99.90
6252;DHT22;3159;52.414;9.784;2023-04-08T14:01:50;10.40;99.90
6252;DHT22;3159;52.414;9.784;2023-04-08T14:04:18;10.50;99.90
6252;DHT22;3159;52.414;9.784;2023-04-08T14:06:47;10.50;99.90
6252;DHT22;3159;52.414;9.784;2023-04-08T14:09:15;10.50;99.90
6252;DHT22;3159;52.414;9.784;2023-04-08T14:11:42;10.40;99.90
6252;DHT22;3159;52.414;9.784;2023-04-08T14:14:09;10.40;99.90
6252;DHT22;3159;52.414;9.784;2023-04-08T14:16:36;10.40;99.90
6252;DHT22;3159;52.414;9.784;2023-04-08T14:19:03;10.30;99.90
6252;DHT22;3159;52.414;9.784;2023-04-08T14:21:30;10.40;99.90
6252;DHT22;3159;52.414;9.784;2023-04-08T14:23:59;10.40;99.90
6252;DHT22;3159;52.414;9.784;2023-04-08T14:26:25;10.50;99.90
6252;DHT22;3159;52.414;9.784;2023-04-08T14:28:52;10.40;99.90
6252;DHT22;3159;52.414;9.784;2023-04-08T14:31:19;10.40;99.90
6252;DHT22;3159;52.414;9.784;2023-04-08T14:33:46;10.50;99.90
6252;DHT22;3159;52.414;9.784;2023-04-08T14:36:13;10.50;99.90
6252;DHT22;3159;52.414;9.784;2023-04-08T14:38:39;10.60;99.90
6252;DHT22;3159;52.414;9.784;2023-04-08T14:41:08;10.60;99.90
6252;DHT22;3159;52.414;9.784;2023-04-08T14:43:34;10.40;99.90
6252;DHT22;3159;52.414;9.784;2023-04-08T14:46:01;10.40;99.90
6252;DHT22;3159;52.414;9.784;2023-04-08T14:48:28;10.40;99.90
6252;DHT22;3159;52.414;9.784;2023-04-08T14:50:55;10.50;99.90
6252;DHT22;3159;52.414;9.784;2023-04-08T14:53:22;10.40;99.90
6252;DHT22;3159;52.414;9.784;2023-04-08T14:55:49;10.40;99.90
6252;DHT22;3159;52.414;9.784;2023-04-08T14:58:18;10.40;99.90
6252;DHT22;3159;52.414;9.784;2023-04-08T15:00:45;10.60;99.90
6252;DHT22;3159;52.414;9.784;2023-04-08T15:03:13;10.30;99.90
6252;DHT22;3159;52.414;9.784;2023-04-08T15:05:40;10.30;99.90
6252;DHT22;3159;52.414;9.784;2023-04-08T15:08:07;10.30;99.90
6252;DHT22;3159;52.414;9.784;2023-04-08T15:10:34;10.30;99.90
6252;DHT22;3159;52.414;9.784;2023-04-08T15:13:01;10.30;99.90
6252;DHT22;3159;52.414;9.784;2023-04-08T15:15:29;10.30;99.90
6252;DHT22;3159;52.414;9.784;2023-04-08T15:17:56;10.40;99.90
6252;DHT22;3159;52.414;9.784;2023-04-08T15:20:23;10.40;99.90
6252;DHT22;3159;52.414;9.784;2023-04-08T15:22:50;10.40;99.90
6252;DHT22;3159;52.414;9.784;2023-04-08T15:25:17;10.40;99.90
6252;DHT22;3159;52.414;9.784;2023-04-08T15:27:44;10.30;99.90
6252;DHT22;3159;52.414;9.784;2023-04-08T15:30:11;10.40;99.90
6252;DHT22;3159;52.414;9.784;2023-04-08T15:32:39;10.30;99.90
6252;DHT22;3159;52.414;9.784;2023-04-08T15:35:07;10.30;99.90
6252;DHT22;3159;52.414;9.784;2023-04-08T15:37:35;10.20;99.90
6252;DHT22;3159;52.414;9.784;2023-04-08T15:40:02;10.10;99.90
6252;DHT22;3159;52.414;9.784;2023-04-08T15:42:29;10.20;99.90
6252;DHT22;3159;52.414;9.784;2023-04-08T15:44:55;10.30;99.90
6252;DHT22;3159;52.414;9.784;2023-04-08T15:47:22;10.30;99.90
6252;DHT22;3159;52.414;9.784;2023-04-08T15:49:53;10.30;99.90
6252;DHT22;3159;52.414;9.784;2023-04-08T15:52:20;10.30;99.90
6252;DHT22;3159;52.414;9.784;2023-04-08T15:54:47;10.20;99.90
6252;DHT22;3159;52.414;9.784;2023-04-08T15:57:14;10.10;99.90
6252;DHT22;3159;52.414;9.784;2023-04-08T15:59:41;10.20;99.90
6252;DHT22;3159;52.414;9.784;2023-04-08T16:02:07;10.20;99.90
6252;DHT22;3159;52.414;9.784;2023-04-08T16:04:34;10.20;99.90
6252;DHT22;3159;52.414;9.784;2023-04-08T16:07:02;10.20;99.90
6252;DHT22;3159;52.414;9.784;2023-04-08T16:09:29;10.20;99.90
6252;DHT22;3159;52.414;9.784;2023-04-08T16:11:56;10.20;99.90
6252;DHT22;3159;52.414;9.784;2023-04-08T16:14:24;10.20;99.90
6252;DHT22;3159;52.414;9.784;2023-04-08T16:16:51;10.00;99.90
6252;DHT22;3159;52.414;9.784;2023-04-08T16:19:18;10.00;99.90